sensor_id;sensor_type;location;lat;lon;timestamp;pressure;altitude;pressure_sealevel;temperature;humidity
75699;BME280;64313;51.018;13.742;2023-05-14T00:02:07;100079.53;;;13.40;69.00
75699;BME280;64313;51.018;13.742;2023-05-14T00:04:32;100076.47;;;13.36;69.30
75699;BME280;64313;51.018;13.742;2023-05-14T00:06:57;100081.00;;;13.36;68.78
75699;BME280;64313;51.018;13.742;2023-05-14T00:09:23;100074.59;;;13.37;68.93
75699;BME280;64313;51.018;13.742;2023-05-14T00:11:48;100073.78;;;13.36;69.04
75699;BME280;64313;51.018;13.742;2023-05-14T00:14:13;100067.38;;;13.37;69.22
75699;BME280;64313;51.018;13.742;2023-05-14T00:16:38;100064.06;;;13.35;69.43
75699;BME280;64313;51.018;13.742;2023-05-14T00:19:04;100057.25;;;13.33;69.41
75699;BME280;64313;51.018;13.742;2023-05-14T00:21:29;100059.72;;;13.28;69.67
75699;BME280;64313;51.018;13.742;2023-05-14T00:23:55;100062.81;;;13.25;69.71
75699;BME280;64313;51.018;13.742;2023-05-14T00:26:21;100054.34;;;13.21;70.25
75699;BME280;64313;51.018;13.742;2023-05-14T00:28:47;100057.84;;;13.21;70.04
75699;BME280;64313;51.018;13.742;2023-05-14T00:31:13;100049.00;;;13.21;70.10
75699;BME280;64313;51.018;13.742;2023-05-14T00:33:38;100052.28;;;13.23;69.51
75699;BME280;64313;51.018;13.742;2023-05-14T00:36:04;100042.38;;;13.24;70.07
75699;BME280;64313;51.018;13.742;2023-05-14T00:38:29;100049.81;;;13.21;70.62
75699;BME280;64313;51.018;13.742;2023-05-14T00:40:54;100040.72;;;13.23;70.06
75699;BME280;64313;51.018;13.742;2023-05-14T00:43:21;100033.50;;;13.23;69.40
75699;BME280;64313;51.018;13.742;2023-05-14T00:45:49;100036.19;;;13.23;70.38
75699;BME280;64313;51.018;13.742;2023-05-14T00:48:14;100045.69;;;13.19;70.51
75699;BME280;64313;51.018;13.742;2023-05-14T00:50:42;100034.13;;;13.18;70.15
75699;BME280;64313;51.018;13.742;2023-05-14T00:53:08;100044.84;;;13.18;70.34
75699;BME280;64313;51.018;13.742;2023-05-14T00:55:36;100031.44;;;13.18;70.08
75699;BME280;64313;51.018;13.742;2023-05-14T00:58:04;100036.81;;;13.18;70.52
75699;BME280;64313;51.018;13.742;2023-05-14T01:00:31;100043.00;;;13.19;70.69
75699;BME280;64313;51.018;13.742;2023-05-14T01:02:56;100031.63;;;13.17;70.28
75699;BME280;64313;51.018;13.742;2023-05-14T01:05:28;100041.56;;;13.16;70.56
75699;BME280;64313;51.018;13.742;2023-05-14T01:08:05;100030.63;;;13.11;71.44
75699;BME280;64313;51.018;13.742;2023-05-14T01:10:50;100032.47;;;13.11;69.96
75699;BME280;64313;51.018;13.742;2023-05-14T01:16:00;100025.88;;;13.07;71.41
75699;BME280;64313;51.018;13.742;2023-05-14T01:18:28;100028.34;;;13.02;71.82
75699;BME280;64313;51.018;13.742;2023-05-14T01:20:54;100027.09;;;12.97;72.21
75699;BME280;64313;51.018;13.742;2023-05-14T01:23:19;100032.06;;;12.94;72.55
75699;BME280;64313;51.018;13.742;2023-05-14T01:25:44;100032.50;;;12.91;72.40
75699;BME280;64313;51.018;13.742;2023-05-14T01:28:16;100031.66;;;12.90;72.40
75699;BME280;64313;51.018;13.742;2023-05-14T01:31:17;100039.50;;;12.92;71.96
75699;BME280;64313;51.018;13.742;2023-05-14T01:33:43;100035.78;;;12.93;72.04
75699;BME280;64313;51.018;13.742;2023-05-14T01:36:12;100031.88;;;12.95;71.89
75699;BME280;64313;51.018;13.742;2023-05-14T01:38:38;100033.31;;;12.98;71.48
75699;BME280;64313;51.018;13.742;2023-05-14T01:41:05;100030.63;;;12.98;71.80
75699;BME280;64313;51.018;13.742;2023-05-14T01:43:31;100029.38;;;12.94;72.39
75699;BME280;64313;51.018;13.742;2023-05-14T01:45:57;100029.38;;;12.94;71.78
75699;BME280;64313;51.018;13.742;2023-05-14T01:48:23;100026.28;;;12.97;71.10
75699;BME280;64313;51.018;13.742;2023-05-14T01:50:49;100026.06;;;12.92;72.06
75699;BME280;64313;51.018;13.742;2023-05-14T01:53:15;100027.13;;;12.91;71.70
75699;BME280;64313;51.018;13.742;2023-05-14T01:55:40;100020.72;;;12.92;70.99
75699;BME280;64313;51.018;13.742;2023-05-14T01:58:06;100022.56;;;12.91;71.84
75699;BME280;64313;51.018;13.742;2023-05-14T02:00:31;100020.72;;;12.85;72.14
75699;BME280;64313;51.018;13.742;2023-05-14T02:02:57;100024.66;;;12.83;72.62
75699;BME280;64313;51.018;13.742;2023-05-14T02:05:22;100033.09;;;12.80;72.80
75699;BME280;64313;51.018;13.742;2023-05-14T02:07:47;100028.97;;;12.77;72.57
75699;BME280;64313;51.018;13.742;2023-05-14T02:10:14;100033.31;;;12.78;72.45
75699;BME280;64313;51.018;13.742;2023-05-14T02:12:40;100029.38;;;12.74;72.46
75699;BME280;64313;51.018;13.742;2023-05-14T02:15:05;100025.06;;;12.73;72.47
75699;BME280;64313;51.018;13.742;2023-05-14T02:17:34;100027.91;;;12.65;73.04
75699;BME280;64313;51.018;13.742;2023-05-14T02:19:59;100022.97;;;12.62;72.77
75699;BME280;64313;51.018;13.742;2023-05-14T02:22:24;100026.69;;;12.61;72.68
75699;BME280;64313;51.018;13.742;2023-05-14T02:24:50;100015.97;;;12.61;71.97
75699;BME280;64313;51.018;13.742;2023-05-14T02:27:16;100016.56;;;12.56;72.52
75699;BME280;64313;51.018;13.742;2023-05-14T02:29:42;100016.19;;;12.52;72.70
75699;BME280;64313;51.018;13.742;2023-05-14T02:32:07;100014.72;;;12.50;71.80
75699;BME280;64313;51.018;13.742;2023-05-14T02:34:33;100020.09;;;12.50;72.13
75699;BME280;64313;51.018;13.742;2023-05-14T02:36:58;100012.88;;;12.50;71.68
75699;BME280;64313;51.018;13.742;2023-05-14T02:39:24;100009.38;;;12.50;72.04
75699;BME280;64313;51.018;13.742;2023-05-14T02:41:49;100012.25;;;12.48;71.82
75699;BME280;64313;51.018;13.742;2023-05-14T02:44:15;100009.16;;;12.45;72.02
75699;BME280;64313;51.018;13.742;2023-05-14T02:46:41;100012.22;;;12.42;72.44
75699;BME280;64313;51.018;13.742;2023-05-14T02:49:07;100015.50;;;12.37;72.51
75699;BME280;64313;51.018;13.742;2023-05-14T02:51:32;100021.50;;;12.32;72.71
75699;BME280;64313;51.018;13.742;2023-05-14T02:53:58;100014.06;;;12.28;72.90
75699;BME280;64313;51.018;13.742;2023-05-14T02:56:23;100013.63;;;12.24;72.54
75699;BME280;64313;51.018;13.742;2023-05-14T02:58:49;100015.06;;;12.20;72.91
75699;BME280;64313;51.018;13.742;2023-05-14T03:01:14;100021.66;;;12.18;72.56
75699;BME280;64313;51.018;13.742;2023-05-14T03:03:39;100021.22;;;12.14;73.23
75699;BME280;64313;51.018;13.742;2023-05-14T03:06:05;100014.63;;;12.10;73.49
75699;BME280;64313;51.018;13.742;2023-05-14T03:08:30;100016.06;;;12.06;73.13
75699;BME280;64313;51.018;13.742;2023-05-14T03:10:55;100016.06;;;12.06;72.66
75699;BME280;64313;51.018;13.742;2023-05-14T03:13:21;100011.09;;;12.03;72.81
75699;BME280;64313;51.018;13.742;2023-05-14T03:15:46;100014.78;;;12.02;72.74
75699;BME280;64313;51.018;13.742;2023-05-14T03:18:12;100017.88;;;11.99;72.91
75699;BME280;64313;51.018;13.742;2023-05-14T03:20:37;100020.97;;;11.96;72.90
75699;BME280;64313;51.018;13.742;2023-05-14T03:23:04;100012.13;;;11.95;72.75
75699;BME280;64313;51.018;13.742;2023-05-14T03:25:30;100016.44;;;11.96;72.48
75699;BME280;64313;51.018;13.742;2023-05-14T03:27:56;100018.25;;;11.89;73.29
75699;BME280;64313;51.018;13.742;2023-05-14T03:30:21;100016.63;;;11.88;72.35
75699;BME280;64313;51.018;13.742;2023-05-14T03:32:47;100009.41;;;11.88;72.73
75699;BME280;64313;51.018;13.742;2023-05-14T03:35:14;100009.63;;;11.87;73.17
75699;BME280;64313;51.018;13.742;2023-05-14T03:37:40;100004.41;;;11.85;72.90
75699;BME280;64313;51.018;13.742;2023-05-14T03:40:06;99997.41;;;11.84;72.96
75699;BME280;64313;51.018;13.742;2023-05-14T03:42:31;100001.09;;;11.83;72.83
75699;BME280;64313;51.018;13.742;2023-05-14T03:44:56;99995.13;;;11.81;72.77
75699;BME280;64313;51.018;13.742;2023-05-14T03:47:22;99998.03;;;11.80;73.10
75699;BME280;64313;51.018;13.742;2023-05-14T03:49:47;99997.78;;;11.75;73.20
75699;BME280;64313;51.018;13.742;2023-05-14T03:52:14;99995.50;;;11.72;73.34
75699;BME280;64313;51.018;13.742;2023-05-14T03:54:42;99993.03;;;11.70;73.11
75699;BME280;64313;51.018;13.742;2023-05-14T03:57:07;99994.03;;;11.69;73.32
75699;BME280;64313;51.018;13.742;2023-05-14T03:59:33;99990.94;;;11.65;73.55
75699;BME280;64313;51.018;13.742;2023-05-14T04:01:58;99988.03;;;11.60;74.00
75699;BME280;64313;51.018;13.742;2023-05-14T04:04:24;99991.13;;;11.57;73.26
75699;BME280;64313;51.018;13.742;2023-05-14T04:06:50;99990.91;;;11.59;73.41
75699;BME280;64313;51.018;13.742;2023-05-14T04:09:15;99979.38;;;11.58;72.68
75699;BME280;64313;51.018;13.742;2023-05-14T04:11:40;99980.41;;;11.57;72.86
75699;BME280;64313;51.018;13.742;2023-05-14T04:14:06;99981.22;;;11.58;72.65
75699;BME280;64313;51.018;13.742;2023-05-14T04:16:31;99980.00;;;11.60;72.13
75699;BME280;64313;51.018;13.742;2023-05-14T04:18:57;99981.06;;;11.66;72.11
75699;BME280;64313;51.018;13.742;2023-05-14T04:21:22;99979.41;;;11.65;72.21
75699;BME280;64313;51.018;13.742;2023-05-14T04:23:48;99986.59;;;11.58;72.42
75699;BME280;64313;51.018;13.742;2023-05-14T04:26:14;99982.28;;;11.57;72.46
75699;BME280;64313;51.018;13.742;2023-05-14T04:28:40;99980.59;;;11.56;72.66
75699;BME280;64313;51.018;13.742;2023-05-14T04:31:05;99978.75;;;11.56;73.13
75699;BME280;64313;51.018;13.742;2023-05-14T04:33:30;99976.47;;;11.53;73.62
75699;BME280;64313;51.018;13.742;2023-05-14T04:35:56;99968.66;;;11.52;73.65
75699;BME280;64313;51.018;13.742;2023-05-14T04:38:21;99973.59;;;11.55;73.35
75699;BME280;64313;51.018;13.742;2023-05-14T04:40:47;99974.66;;;11.60;74.00
75699;BME280;64313;51.018;13.742;2023-05-14T04:43:12;99959.84;;;11.64;73.60
75699;BME280;64313;51.018;13.742;2023-05-14T04:45:37;99960.25;;;11.68;74.24
75699;BME280;64313;51.018;13.742;2023-05-14T04:48:05;99957.00;;;11.73;73.13
75699;BME280;64313;51.018;13.742;2023-05-14T04:50:32;99962.16;;;11.81;72.52
75699;BME280;64313;51.018;13.742;2023-05-14T04:52:57;99962.38;;;11.86;73.06
75699;BME280;64313;51.018;13.742;2023-05-14T04:55:22;99969.44;;;11.94;72.55
75699;BME280;64313;51.018;13.742;2023-05-14T04:57:48;99967.59;;;12.01;72.50
75699;BME280;64313;51.018;13.742;2023-05-14T05:00:14;99959.38;;;12.09;72.39
75699;BME280;64313;51.018;13.742;2023-05-14T05:02:39;99954.22;;;12.14;72.51
75699;BME280;64313;51.018;13.742;2023-05-14T05:05:05;99954.25;;;12.21;72.62
75699;BME280;64313;51.018;13.742;2023-05-14T05:07:30;99957.78;;;12.28;72.17
75699;BME280;64313;51.018;13.742;2023-05-14T05:09:56;99957.56;;;12.36;72.60
75699;BME280;64313;51.018;13.742;2023-05-14T05:12:21;99961.91;;;12.44;71.95
75699;BME280;64313;51.018;13.742;2023-05-14T05:14:47;99958.41;;;12.50;71.96
75699;BME280;64313;51.018;13.742;2023-05-14T05:17:12;99953.66;;;12.59;72.13
75699;BME280;64313;51.018;13.742;2023-05-14T05:19:37;99948.09;;;12.67;72.30
75699;BME280;64313;51.018;13.742;2023-05-14T05:22:03;99948.91;;;12.74;70.64
75699;BME280;64313;51.018;13.742;2023-05-14T05:24:28;99954.06;;;12.82;70.52
75699;BME280;64313;51.018;13.742;2023-05-14T05:26:54;99951.19;;;12.90;70.13
75699;BME280;64313;51.018;13.742;2023-05-14T05:29:20;99948.47;;;12.97;70.28
75699;BME280;64313;51.018;13.742;2023-05-14T05:31:45;99953.41;;;13.07;69.88
75699;BME280;64313;51.018;13.742;2023-05-14T05:34:10;99943.28;;;13.15;69.56
75699;BME280;64313;51.018;13.742;2023-05-14T05:36:36;99943.06;;;13.24;69.31
75699;BME280;64313;51.018;13.742;2023-05-14T05:39:01;99941.22;;;13.31;68.79
75699;BME280;64313;51.018;13.742;2023-05-14T05:41:26;99948.59;;;13.35;68.28
75699;BME280;64313;51.018;13.742;2023-05-14T05:43:52;99944.91;;;13.36;67.92
75699;BME280;64313;51.018;13.742;2023-05-14T05:46:17;99947.59;;;13.36;67.82
75699;BME280;64313;51.018;13.742;2023-05-14T05:48:43;99941.41;;;13.36;67.87
75699;BME280;64313;51.018;13.742;2023-05-14T05:51:08;99944.09;;;13.36;68.03
75699;BME280;64313;51.018;13.742;2023-05-14T05:53:33;99945.28;;;13.40;67.94
75699;BME280;64313;51.018;13.742;2023-05-14T05:55:59;99942.41;;;13.41;67.17
75699;BME280;64313;51.018;13.742;2023-05-14T05:58:24;99945.69;;;13.44;68.07
75699;BME280;64313;51.018;13.742;2023-05-14T06:00:50;99943.22;;;13.42;67.77
75699;BME280;64313;51.018;13.742;2023-05-14T06:03:16;99941.78;;;13.46;67.71
75699;BME280;64313;51.018;13.742;2023-05-14T06:05:41;99949.78;;;13.53;67.47
75699;BME280;64313;51.018;13.742;2023-05-14T06:08:07;99949.75;;;13.59;67.78
75699;BME280;64313;51.018;13.742;2023-05-14T06:10:32;99948.69;;;13.67;67.10
75699;BME280;64313;51.018;13.742;2023-05-14T06:12:58;99939.56;;;13.75;67.65
75699;BME280;64313;51.018;13.742;2023-05-14T06:15:23;99941.41;;;13.81;66.66
75699;BME280;64313;51.018;13.742;2023-05-14T06:17:49;99946.28;;;13.91;66.26
75699;BME280;64313;51.018;13.742;2023-05-14T06:20:14;99943.38;;;13.99;66.05
75699;BME280;64313;51.018;13.742;2023-05-14T06:22:39;99931.31;;;14.08;65.87
75699;BME280;64313;51.018;13.742;2023-05-14T06:25:05;99934.56;;;14.17;65.68
75699;BME280;64313;51.018;13.742;2023-05-14T06:27:31;99936.19;;;14.24;66.13
75699;BME280;64313;51.018;13.742;2023-05-14T06:29:56;99942.09;;;14.33;65.18
75699;BME280;64313;51.018;13.742;2023-05-14T06:32:21;99938.09;;;14.42;65.46
75699;BME280;64313;51.018;13.742;2023-05-14T06:34:47;99945.28;;;14.48;65.24
75699;BME280;64313;51.018;13.742;2023-05-14T06:37:12;99939.69;;;14.57;64.89
75699;BME280;64313;51.018;13.742;2023-05-14T06:39:38;99935.91;;;14.64;64.36
75699;BME280;64313;51.018;13.742;2023-05-14T06:42:03;99931.03;;;14.73;64.13
75699;BME280;64313;51.018;13.742;2023-05-14T06:44:30;99930.75;;;14.81;64.53
75699;BME280;64313;51.018;13.742;2023-05-14T06:46:55;99922.41;;;14.89;64.16
75699;BME280;64313;51.018;13.742;2023-05-14T06:49:21;99918.59;;;14.97;63.99
75699;BME280;64313;51.018;13.742;2023-05-14T06:51:46;99923.69;;;15.05;63.65
75699;BME280;64313;51.018;13.742;2023-05-14T06:54:11;99928.78;;;15.13;63.29
75699;BME280;64313;51.018;13.742;2023-05-14T06:56:37;99924.16;;;15.21;63.09
75699;BME280;64313;51.018;13.742;2023-05-14T06:59:02;99914.34;;;15.26;62.96
75699;BME280;64313;51.018;13.742;2023-05-14T07:01:27;99916.50;;;15.36;62.82
75699;BME280;64313;51.018;13.742;2023-05-14T07:03:53;99918.53;;;15.41;62.50
75699;BME280;64313;51.018;13.742;2023-05-14T07:06:18;99912.63;;;15.50;61.93
75699;BME280;64313;51.018;13.742;2023-05-14T07:08:44;99910.06;;;15.55;62.00
75699;BME280;64313;51.018;13.742;2023-05-14T07:11:10;99914.31;;;15.63;61.42
75699;BME280;64313;51.018;13.742;2023-05-14T07:13:36;99912.38;;;15.70;61.70
75699;BME280;64313;51.018;13.742;2023-05-14T07:16:01;99912.28;;;15.77;61.47
75699;BME280;64313;51.018;13.742;2023-05-14T07:18:26;99910.56;;;15.83;61.01
75699;BME280;64313;51.018;13.742;2023-05-14T07:20:51;99906.94;;;15.89;60.76
75699;BME280;64313;51.018;13.742;2023-05-14T07:23:17;99902.50;;;15.94;60.38
75699;BME280;64313;51.018;13.742;2023-05-14T07:25:43;99907.56;;;16.02;61.39
75699;BME280;64313;51.018;13.742;2023-05-14T07:28:09;99899.75;;;16.13;60.49
75699;BME280;64313;51.018;13.742;2023-05-14T07:30:36;99898.00;;;16.18;60.06
75699;BME280;64313;51.018;13.742;2023-05-14T07:33:01;99901.97;;;16.28;60.18
75699;BME280;64313;51.018;13.742;2023-05-14T07:35:26;99894.00;;;16.33;59.97
75699;BME280;64313;51.018;13.742;2023-05-14T07:37:51;99893.69;;;16.41;60.09
75699;BME280;64313;51.018;13.742;2023-05-14T07:40:17;99886.31;;;16.48;60.04
75699;BME280;64313;51.018;13.742;2023-05-14T07:42:42;99882.44;;;16.56;59.55
75699;BME280;64313;51.018;13.742;2023-05-14T07:45:08;99884.06;;;16.57;59.69
75699;BME280;64313;51.018;13.742;2023-05-14T07:47:34;99886.66;;;16.63;59.29
75699;BME280;64313;51.018;13.742;2023-05-14T07:49:59;99883.00;;;16.70;59.16
75699;BME280;64313;51.018;13.742;2023-05-14T07:52:24;99878.53;;;16.75;58.94
75699;BME280;64313;51.018;13.742;2023-05-14T07:54:50;99874.69;;;16.83;59.07
75699;BME280;64313;51.018;13.742;2023-05-14T07:57:16;99876.22;;;16.91;58.55
75699;BME280;64313;51.018;13.742;2023-05-14T07:59:42;99882.78;;;16.95;58.75
75699;BME280;64313;51.018;13.742;2023-05-14T08:02:07;99865.88;;;16.99;58.31
75699;BME280;64313;51.018;13.742;2023-05-14T08:04:34;99873.59;;;17.07;59.20
75699;BME280;64313;51.018;13.742;2023-05-14T08:07:00;99874.31;;;17.15;58.24
75699;BME280;64313;51.018;13.742;2023-05-14T08:09:25;99870.41;;;17.22;57.42
75699;BME280;64313;51.018;13.742;2023-05-14T08:11:50;99873.81;;;17.29;57.45
75699;BME280;64313;51.018;13.742;2023-05-14T08:14:16;99874.13;;;17.33;57.81
75699;BME280;64313;51.018;13.742;2023-05-14T08:16:41;99870.47;;;17.39;57.49
75699;BME280;64313;51.018;13.742;2023-05-14T08:19:06;99869.78;;;17.44;57.53
75699;BME280;64313;51.018;13.742;2023-05-14T08:21:32;99875.72;;;17.46;57.09
75699;BME280;64313;51.018;13.742;2023-05-14T08:23:57;99872.91;;;17.52;57.35
75699;BME280;64313;51.018;13.742;2023-05-14T08:26:23;99864.06;;;17.57;57.17
75699;BME280;64313;51.018;13.742;2023-05-14T08:28:48;99864.47;;;17.66;56.86
75699;BME280;64313;51.018;13.742;2023-05-14T08:31:14;99871.38;;;17.73;56.30
75699;BME280;64313;51.018;13.742;2023-05-14T08:33:39;99864.66;;;17.76;56.05
75699;BME280;64313;51.018;13.742;2023-05-14T08:36:05;99863.03;;;17.75;56.26
75699;BME280;64313;51.018;13.742;2023-05-14T08:38:31;99864.13;;;17.74;56.11
75699;BME280;64313;51.018;13.742;2023-05-14T08:40:57;99862.72;;;17.71;56.46
75699;BME280;64313;51.018;13.742;2023-05-14T08:43:25;99856.97;;;17.68;56.43
75699;BME280;64313;51.018;13.742;2023-05-14T08:45:57;99872.00;;;17.64;56.91
75699;BME280;64313;51.018;13.742;2023-05-14T08:48:25;99869.78;;;17.61;56.50
75699;BME280;64313;51.018;13.742;2023-05-14T08:50:54;99866.78;;;17.57;56.63
75699;BME280;64313;51.018;13.742;2023-05-14T08:53:19;99855.88;;;17.52;56.64
75699;BME280;64313;51.018;13.742;2023-05-14T08:55:46;99860.47;;;17.51;56.04
75699;BME280;64313;51.018;13.742;2023-05-14T08:58:12;99860.19;;;17.53;56.45
75699;BME280;64313;51.018;13.742;2023-05-14T09:00:37;99851.28;;;17.52;56.72
75699;BME280;64313;51.018;13.742;2023-05-14T09:03:04;99853.97;;;17.52;55.74
75699;BME280;64313;51.018;13.742;2023-05-14T09:05:29;99856.09;;;17.50;55.77
75699;BME280;64313;51.018;13.742;2023-05-14T09:07:54;99856.09;;;17.50;55.89
75699;BME280;64313;51.018;13.742;2023-05-14T09:10:20;99857.97;;;17.50;55.94
75699;BME280;64313;51.018;13.742;2023-05-14T09:12:46;99856.34;;;17.49;55.56
75699;BME280;64313;51.018;13.742;2023-05-14T09:15:11;99854.47;;;17.49;55.35
75699;BME280;64313;51.018;13.742;2023-05-14T09:17:37;99849.88;;;17.50;55.64
75699;BME280;64313;51.018;13.742;2023-05-14T09:20:03;99851.50;;;17.51;55.94
75699;BME280;64313;51.018;13.742;2023-05-14T09:22:28;99841.53;;;17.51;55.47
75699;BME280;64313;51.018;13.742;2023-05-14T09:25:03;99837.53;;;17.54;55.72
75699;BME280;64313;51.018;13.742;2023-05-14T09:27:31;99835.16;;;17.58;55.28
75699;BME280;64313;51.018;13.742;2023-05-14T09:30:09;99835.47;;;17.61;55.23
75699;BME280;64313;51.018;13.742;2023-05-14T09:32:39;99828.03;;;17.68;55.35
75699;BME280;64313;51.018;13.742;2023-05-14T09:35:20;99823.56;;;17.74;55.25
75699;BME280;64313;51.018;13.742;2023-05-14T09:37:48;99822.00;;;17.78;54.68
75699;BME280;64313;51.018;13.742;2023-05-14T09:40:15;99814.00;;;17.83;55.08
75699;BME280;64313;51.018;13.742;2023-05-14T09:42:40;99814.34;;;17.87;54.34
75699;BME280;64313;51.018;13.742;2023-05-14T09:45:07;99812.78;;;17.91;54.70
75699;BME280;64313;51.018;13.742;2023-05-14T09:47:33;99804.44;;;17.92;54.53
75699;BME280;64313;51.018;13.742;2023-05-14T09:49:58;99795.00;;;17.95;53.87
75699;BME280;64313;51.018;13.742;2023-05-14T09:52:26;99798.53;;;17.95;53.76
75699;BME280;64313;51.018;13.742;2023-05-14T09:54:51;99798.84;;;17.99;54.39
75699;BME280;64313;51.018;13.742;2023-05-14T09:57:17;99791.06;;;18.03;54.22
75699;BME280;64313;51.018;13.742;2023-05-14T09:59:43;99798.69;;;18.06;55.06
75699;BME280;64313;51.018;13.742;2023-05-14T10:02:16;99789.00;;;18.10;53.83
75699;BME280;64313;51.018;13.742;2023-05-14T10:04:47;99783.69;;;18.15;53.89
75699;BME280;64313;51.018;13.742;2023-05-14T10:07:13;99782.09;;;18.19;54.33
75699;BME280;64313;51.018;13.742;2023-05-14T10:09:39;99784.34;;;18.22;54.27
75699;BME280;64313;51.018;13.742;2023-05-14T10:12:07;99782.19;;;18.24;53.24
75699;BME280;64313;51.018;13.742;2023-05-14T10:14:37;99781.13;;;18.25;53.80
75699;BME280;64313;51.018;13.742;2023-05-14T10:17:04;99785.47;;;18.26;52.94
75699;BME280;64313;51.018;13.742;2023-05-14T10:19:32;99778.16;;;18.27;52.86
75699;BME280;64313;51.018;13.742;2023-05-14T10:22:03;99771.13;;;18.26;53.22
75699;BME280;64313;51.018;13.742;2023-05-14T10:24:29;99768.66;;;18.24;52.58
75699;BME280;64313;51.018;13.742;2023-05-14T10:26:55;99762.69;;;18.22;52.91
75699;BME280;64313;51.018;13.742;2023-05-14T10:29:33;99768.34;;;18.21;52.29
75699;BME280;64313;51.018;13.742;2023-05-14T10:32:03;99770.22;;;18.20;53.00
75699;BME280;64313;51.018;13.742;2023-05-14T10:39:43;99758.53;;;18.14;53.49
75699;BME280;64313;51.018;13.742;2023-05-14T10:42:13;99763.34;;;18.12;53.71
75699;BME280;64313;51.018;13.742;2023-05-14T10:44:48;99759.00;;;18.11;54.02
75699;BME280;64313;51.018;13.742;2023-05-14T10:47:14;99754.66;;;18.10;53.40
75699;BME280;64313;51.018;13.742;2023-05-14T10:49:41;99756.78;;;18.08;53.73
75699;BME280;64313;51.018;13.742;2023-05-14T10:52:08;99757.59;;;18.09;54.48
75699;BME280;64313;51.018;13.742;2023-05-14T10:54:36;99764.09;;;18.08;54.03
75699;BME280;64313;51.018;13.742;2023-05-14T10:57:02;99752.47;;;18.07;53.75
75699;BME280;64313;51.018;13.742;2023-05-14T10:59:27;99747.84;;;18.08;53.71
75699;BME280;64313;51.018;13.742;2023-05-14T11:01:53;99738.13;;;18.07;52.67
75699;BME280;64313;51.018;13.742;2023-05-14T11:04:23;99738.13;;;18.07;53.14
75699;BME280;64313;51.018;13.742;2023-05-14T11:06:50;99744.06;;;18.09;53.73
75699;BME280;64313;51.018;13.742;2023-05-14T11:09:19;99732.22;;;18.10;53.27
75699;BME280;64313;51.018;13.742;2023-05-14T11:11:45;99731.69;;;18.13;53.25
75699;BME280;64313;51.018;13.742;2023-05-14T11:14:11;99739.59;;;18.14;52.99
75699;BME280;64313;51.018;13.742;2023-05-14T11:16:37;99728.50;;;18.16;52.90
75699;BME280;64313;51.018;13.742;2023-05-14T11:19:03;99736.09;;;18.19;53.36
75699;BME280;64313;51.018;13.742;2023-05-14T11:21:29;99727.25;;;18.24;51.64
75699;BME280;64313;51.018;13.742;2023-05-14T11:23:55;99725.94;;;18.26;52.70
75699;BME280;64313;51.018;13.742;2023-05-14T11:26:22;99718.97;;;18.30;52.39
75699;BME280;64313;51.018;13.742;2023-05-14T11:28:48;99720.09;;;18.34;51.97
75699;BME280;64313;51.018;13.742;2023-05-14T11:31:13;99717.47;;;18.40;53.72
75699;BME280;64313;51.018;13.742;2023-05-14T11:33:38;99712.66;;;18.47;52.19
75699;BME280;64313;51.018;13.742;2023-05-14T11:36:04;99713.00;;;18.50;52.24
75699;BME280;64313;51.018;13.742;2023-05-14T11:38:30;99709.53;;;18.55;52.57
75699;BME280;64313;51.018;13.742;2023-05-14T11:40:57;99704.66;;;18.57;51.62
75699;BME280;64313;51.018;13.742;2023-05-14T11:43:23;99694.97;;;18.61;51.83
75699;BME280;64313;51.018;13.742;2023-05-14T11:45:50;99696.59;;;18.62;51.83
75699;BME280;64313;51.018;13.742;2023-05-14T11:48:16;99695.03;;;18.66;51.49
75699;BME280;64313;51.018;13.742;2023-05-14T11:50:47;99694.53;;;18.69;51.42
75699;BME280;64313;51.018;13.742;2023-05-14T11:53:23;99697.81;;;18.71;50.78
75699;BME280;64313;51.018;13.742;2023-05-14T11:55:49;99692.97;;;18.73;50.52
75699;BME280;64313;51.018;13.742;2023-05-14T11:58:15;99694.38;;;18.76;51.49
75699;BME280;64313;51.018;13.742;2023-05-14T12:00:44;99691.44;;;18.77;51.01
75699;BME280;64313;51.018;13.742;2023-05-14T12:03:09;99686.56;;;18.79;50.82
75699;BME280;64313;51.018;13.742;2023-05-14T12:05:37;99682.50;;;18.82;51.00
75699;BME280;64313;51.018;13.742;2023-05-14T12:08:18;99670.34;;;18.85;50.36
75699;BME280;64313;51.018;13.742;2023-05-14T12:10:43;99672.81;;;18.86;50.11
75699;BME280;64313;51.018;13.742;2023-05-14T12:13:09;99664.19;;;18.89;50.38
75699;BME280;64313;51.018;13.742;2023-05-14T12:15:34;99663.13;;;18.90;50.12
75699;BME280;64313;51.018;13.742;2023-05-14T12:17:59;99675.88;;;18.95;50.17
75699;BME280;64313;51.018;13.742;2023-05-14T12:20:25;99661.00;;;18.97;48.94
75699;BME280;64313;51.018;13.742;2023-05-14T12:22:53;99672.41;;;18.99;48.81
75699;BME280;64313;51.018;13.742;2023-05-14T12:25:18;99655.66;;;19.02;49.34
75699;BME280;64313;51.018;13.742;2023-05-14T12:27:44;99659.75;;;19.05;49.67
75699;BME280;64313;51.018;13.742;2023-05-14T12:30:11;99658.41;;;19.08;49.89
75699;BME280;64313;51.018;13.742;2023-05-14T12:32:37;99654.09;;;19.12;48.76
75699;BME280;64313;51.018;13.742;2023-05-14T12:35:04;99650.88;;;19.15;48.56
75699;BME280;64313;51.018;13.742;2023-05-14T12:37:30;99640.59;;;19.17;47.32
75699;BME280;64313;51.018;13.742;2023-05-14T12:39:55;99644.16;;;19.22;47.85
75699;BME280;64313;51.018;13.742;2023-05-14T12:42:21;99646.09;;;19.27;48.66
75699;BME280;64313;51.018;13.742;2023-05-14T12:44:46;99633.69;;;19.31;47.13
75699;BME280;64313;51.018;13.742;2023-05-14T12:47:12;99633.16;;;19.34;47.65
75699;BME280;64313;51.018;13.742;2023-05-14T12:49:37;99629.13;;;19.37;47.42
75699;BME280;64313;51.018;13.742;2023-05-14T12:52:03;99629.13;;;19.37;47.19